sensor_id;sensor_type;location;lat;lon;timestamp;P1;durP1;ratioP1;P2;durP2;ratioP2
73315;SDS011;61545;53.726;-0.444;2023-04-05T00:03:33;13.8;;;6;;
73315;SDS011;61545;53.726;-0.444;2023-04-05T00:08:33;13.8;;;6;;
73315;SDS011;61545;53.726;-0.444;2023-04-05T00:13:33;13.3;;;6.4;;
73315;SDS011;61545;53.726;-0.444;2023-04-05T00:18:33;12.1;;;5.8;;
73315;SDS011;61545;53.726;-0.444;2023-04-05T00:23:33;13.6;;;6.1;;
73315;SDS011;61545;53.726;-0.444;2023-04-05T00:28:33;11.3;;;6.1;;
73315;SDS011;61545;53.726;-0.444;2023-04-05T00:33:33;10.5;;;5.3;;
73315;SDS011;61545;53.726;-0.444;2023-04-05T00:38:33;10.5;;;5.3;;
73315;SDS011;61545;53.726;-0.444;2023-04-05T00:43:33;8.3;;;4.3;;
73315;SDS011;61545;53.726;-0.444;2023-04-05T00:48:33;13.5;;;5.9;;
73315;SDS011;61545;53.726;-0.444;2023-04-05T00:53:33;11.9;;;5.4;;
73315;SDS011;61545;53.726;-0.444;2023-04-05T00:58:33;14.5;;;6.6;;
73315;SDS011;61545;53.726;-0.444;2023-04-05T01:03:33;10.3;;;5.3;;
73315;SDS011;61545;53.726;-0.444;2023-04-05T01:08:36;10.3;;;5.3;;
73315;SDS011;61545;53.726;-0.444;2023-04-05T01:13:33;11.1;;;5.6;;
73315;SDS011;61545;53.726;-0.444;2023-04-05T01:18:33;14.3;;;6.1;;
73315;SDS011;61545;53.726;-0.444;2023-04-05T01:23:37;11.9;;;5.7;;
73315;SDS011;61545;53.726;-0.444;2023-04-05T01:28:46;13.5;;;5.5;;
73315;SDS011;61545;53.726;-0.444;2023-04-05T01:33:34;12.3;;;5.9;;
73315;SDS011;61545;53.726;-0.444;2023-04-05T01:38:33;12.3;;;5.9;;
73315;SDS011;61545;53.726;-0.444;2023-04-05T01:43:33;11.6;;;6.1;;
73315;SDS011;61545;53.726;-0.444;2023-04-05T01:48:33;13.6;;;6.8;;
73315;SDS011;61545;53.726;-0.444;2023-04-05T01:53:33;13.7;;;7.5;;
73315;SDS011;61545;53.726;-0.444;2023-04-05T01:58:33;14.2;;;7.1;;
73315;SDS011;61545;53.726;-0.444;2023-04-05T02:03:33;14.4;;;7.2;;
73315;SDS011;61545;53.726;-0.444;2023-04-05T02:08:33;14.4;;;7.2;;
73315;SDS011;61545;53.726;-0.444;2023-04-05T02:13:33;12.1;;;7;;
73315;SDS011;61545;53.726;-0.444;2023-04-05T02:18:33;11.6;;;6.6;;
73315;SDS011;61545;53.726;-0.444;2023-04-05T02:23:33;16.6;;;8;;
73315;SDS011;61545;53.726;-0.444;2023-04-05T02:28:33;12.3;;;7.3;;
73315;SDS011;61545;53.726;-0.444;2023-04-05T02:33:33;19.5;;;10.4;;
73315;SDS011;61545;53.726;-0.444;2023-04-05T02:38:33;19.5;;;10.4;;
73315;SDS011;61545;53.726;-0.444;2023-04-05T02:43:33;13.3;;;8.1;;
73315;SDS011;61545;53.726;-0.444;2023-04-05T02:48:33;16.7;;;8.9;;
73315;SDS011;61545;53.726;-0.444;2023-04-05T02:53:33;15.6;;;8.2;;
73315;SDS011;61545;53.726;-0.444;2023-04-05T02:58:33;17.0;;;9;;
73315;SDS011;61545;53.726;-0.444;2023-04-05T03:03:33;16.3;;;9.1;;
73315;SDS011;61545;53.726;-0.444;2023-04-05T03:08:33;16.3;;;9.1;;
73315;SDS011;61545;53.726;-0.444;2023-04-05T03:13:33;16.4;;;9.5;;
73315;SDS011;61545;53.726;-0.444;2023-04-05T03:18:33;18.3;;;9.8;;
73315;SDS011;61545;53.726;-0.444;2023-04-05T03:23:33;14.4;;;8;;
73315;SDS011;61545;53.726;-0.444;2023-04-05T03:28:33;19.2;;;9.6;;
73315;SDS011;61545;53.726;-0.444;2023-04-05T03:33:33;19.9;;;10;;
73315;SDS011;61545;53.726;-0.444;2023-04-05T03:38:33;19.9;;;10;;
73315;SDS011;61545;53.726;-0.444;2023-04-05T03:43:33;18.7;;;9;;
73315;SDS011;61545;53.726;-0.444;2023-04-05T03:48:33;16.5;;;9.5;;
73315;SDS011;61545;53.726;-0.444;2023-04-05T03:53:33;21.0;;;10.1;;
73315;SDS011;61545;53.726;-0.444;2023-04-05T03:58:33;15.6;;;9.3;;
73315;SDS011;61545;53.726;-0.444;2023-04-05T04:03:33;15.6;;;9.3;;
73315;SDS011;61545;53.726;-0.444;2023-04-05T04:08:33;20.2;;;10.1;;
73315;SDS011;61545;53.726;-0.444;2023-04-05T04:13:33;14.3;;;8.2;;
73315;SDS011;61545;53.726;-0.444;2023-04-05T04:18:33;20.9;;;11.4;;
73315;SDS011;61545;53.726;-0.444;2023-04-05T04:23:34;19.4;;;10.9;;
73315;SDS011;61545;53.726;-0.444;2023-04-05T04:28:33;21.9;;;11.1;;
73315;SDS011;61545;53.726;-0.444;2023-04-05T04:33:33;21.9;;;11.1;;
73315;SDS011;61545;53.726;-0.444;2023-04-05T04:38:33;24.3;;;11.3;;
73315;SDS011;61545;53.726;-0.444;2023-04-05T04:43:33;23.0;;;11.6;;
73315;SDS011;61545;53.726;-0.444;2023-04-05T04:48:33;21.9;;;12.3;;
73315;SDS011;61545;53.726;-0.444;2023-04-05T04:53:33;20.5;;;10.4;;
73315;SDS011;61545;53.726;-0.444;2023-04-05T04:58:33;19.0;;;10.5;;
73315;SDS011;61545;53.726;-0.444;2023-04-05T05:03:33;19.0;;;10.5;;
73315;SDS011;61545;53.726;-0.444;2023-04-05T05:08:33;19.1;;;11;;
73315;SDS011;61545;53.726;-0.444;2023-04-05T05:13:33;21.7;;;11.1;;
73315;SDS011;61545;53.726;-0.444;2023-04-05T05:18:33;21.1;;;11.6;;
73315;SDS011;61545;53.726;-0.444;2023-04-05T05:23:33;21.2;;;11.6;;
73315;SDS011;61545;53.726;-0.444;2023-04-05T05:28:33;20.9;;;11.5;;
73315;SDS011;61545;53.726;-0.444;2023-04-05T05:33:33;20.9;;;11.5;;
73315;SDS011;61545;53.726;-0.444;2023-04-05T05:38:33;23.5;;;11.9;;
73315;SDS011;61545;53.726;-0.444;2023-04-05T05:43:33;21.7;;;11.6;;
73315;SDS011;61545;53.726;-0.444;2023-04-05T05:48:33;19.3;;;11;;
73315;SDS011;61545;53.726;-0.444;2023-04-05T05:53:33;21.0;;;11.4;;
73315;SDS011;61545;53.726;-0.444;2023-04-05T05:58:33;23.3;;;12.5;;
73315;SDS011;61545;53.726;-0.444;2023-04-05T06:03:33;23.3;;;12.5;;
73315;SDS011;61545;53.726;-0.444;2023-04-05T06:08:33;24.7;;;13.2;;
73315;SDS011;61545;53.726;-0.444;2023-04-05T06:13:33;30.9;;;14.5;;
73315;SDS011;61545;53.726;-0.444;2023-04-05T06:18:33;26.6;;;13.8;;
73315;SDS011;61545;53.726;-0.444;2023-04-05T06:23:33;25.0;;;11.5;;
73315;SDS011;61545;53.726;-0.444;2023-04-05T06:28:33;23.4;;;13.1;;
73315;SDS011;61545;53.726;-0.444;2023-04-05T06:33:33;23.4;;;13.1;;
73315;SDS011;61545;53.726;-0.444;2023-04-05T06:38:33;24.7;;;11.9;;
73315;SDS011;61545;53.726;-0.444;2023-04-05T06:43:33;21.0;;;12.4;;
73315;SDS011;61545;53.726;-0.444;2023-04-05T06:48:33;24.5;;;14;;
73315;SDS011;61545;53.726;-0.444;2023-04-05T06:53:33;25.6;;;13.2;;
73315;SDS011;61545;53.726;-0.444;2023-04-05T06:58:33;21.4;;;12.3;;
73315;SDS011;61545;53.726;-0.444;2023-04-05T07:03:33;21.4;;;12.3;;
73315;SDS011;61545;53.726;-0.444;2023-04-05T07:08:33;25.4;;;12.8;;
73315;SDS011;61545;53.726;-0.444;2023-04-05T07:13:33;18.3;;;11.3;;
73315;SDS011;61545;53.726;-0.444;2023-04-05T07:18:33;28.4;;;15;;
73315;SDS011;61545;53.726;-0.444;2023-04-05T07:23:33;29.4;;;13.5;;
73315;SDS011;61545;53.726;-0.444;2023-04-05T07:28:33;20.8;;;10.6;;
73315;SDS011;61545;53.726;-0.444;2023-04-05T07:33:33;20.8;;;10.6;;
73315;SDS011;61545;53.726;-0.444;2023-04-05T07:38:33;23.4;;;11.1;;
73315;SDS011;61545;53.726;-0.444;2023-04-05T07:43:33;24.4;;;11.8;;
73315;SDS011;61545;53.726;-0.444;2023-04-05T07:48:33;24.1;;;13.3;;
73315;SDS011;61545;53.726;-0.444;2023-04-05T07:53:33;22.0;;;12.5;;
73315;SDS011;61545;53.726;-0.444;2023-04-05T07:58:33;20.2;;;11;;
73315;SDS011;61545;53.726;-0.444;2023-04-05T08:03:33;20.2;;;11;;
73315;SDS011;61545;53.726;-0.444;2023-04-05T08:08:33;18.4;;;10.2;;
73315;SDS011;61545;53.726;-0.444;2023-04-05T08:13:33;22.1;;;11;;
73315;SDS011;61545;53.726;-0.444;2023-04-05T08:18:33;21.5;;;11.8;;
73315;SDS011;61545;53.726;-0.444;2023-04-05T08:23:33;26.0;;;13.3;;
73315;SDS011;61545;53.726;-0.444;2023-04-05T08:28:33;17.2;;;9.9;;
73315;SDS011;61545;53.726;-0.444;2023-04-05T08:33:33;17.2;;;9.9;;
73315;SDS011;61545;53.726;-0.444;2023-04-05T08:38:33;25.1;;;13.4;;
73315;SDS011;61545;53.726;-0.444;2023-04-05T08:43:39;22.8;;;11.7;;
73315;SDS011;61545;53.726;-0.444;2023-04-05T08:48:33;19.8;;;10;;
73315;SDS011;61545;53.726;-0.444;2023-04-05T08:53:33;22.7;;;10.8;;
73315;SDS011;61545;53.726;-0.444;2023-04-05T08:58:33;19.1;;;10.6;;
73315;SDS011;61545;53.726;-0.444;2023-04-05T09:03:34;19.1;;;10.6;;
73315;SDS011;61545;53.726;-0.444;2023-04-05T09:08:33;21.2;;;10.8;;
73315;SDS011;61545;53.726;-0.444;2023-04-05T09:13:33;19.7;;;10.9;;
73315;SDS011;61545;53.726;-0.444;2023-04-05T09:18:33;24.3;;;11.3;;
73315;SDS011;61545;53.726;-0.444;2023-04-05T09:23:33;19.4;;;10.8;;
73315;SDS011;61545;53.726;-0.444;2023-04-05T09:28:40;21.8;;;11.2;;
73315;SDS011;61545;53.726;-0.444;2023-04-05T09:33:33;21.8;;;11.2;;
73315;SDS011;61545;53.726;-0.444;2023-04-05T09:38:42;21.8;;;12;;
73315;SDS011;61545;53.726;-0.444;2023-04-05T09:43:35;24.1;;;12.5;;
73315;SDS011;61545;53.726;-0.444;2023-04-05T09:48:50;21.6;;;12;;
73315;SDS011;61545;53.726;-0.444;2023-04-05T09:53:33;22.5;;;11.7;;
73315;SDS011;61545;53.726;-0.444;2023-04-05T09:58:33;16.5;;;9.6;;
73315;SDS011;61545;53.726;-0.444;2023-04-05T10:03:35;16.5;;;9.6;;
73315;SDS011;61545;53.726;-0.444;2023-04-05T10:08:33;16.7;;;10.1;;
73315;SDS011;61545;53.726;-0.444;2023-04-05T10:13:33;19.3;;;11.6;;
73315;SDS011;61545;53.726;-0.444;2023-04-05T10:18:39;18.9;;;10.9;;
73315;SDS011;61545;53.726;-0.444;2023-04-05T10:23:33;23.5;;;12.4;;
73315;SDS011;61545;53.726;-0.444;2023-04-05T10:28:34;21.4;;;11.9;;
73315;SDS011;61545;53.726;-0.444;2023-04-05T10:33:34;21.4;;;11.9;;
73315;SDS011;61545;53.726;-0.444;2023-04-05T10:38:37;22.0;;;10.8;;
73315;SDS011;61545;53.726;-0.444;2023-04-05T10:43:33;25.3;;;11.6;;
73315;SDS011;61545;53.726;-0.444;2023-04-05T10:48:36;25.1;;;11.9;;
73315;SDS011;61545;53.726;-0.444;2023-04-05T10:53:33;20.8;;;10.3;;
73315;SDS011;61545;53.726;-0.444;2023-04-05T10:58:34;19.3;;;10.4;;
73315;SDS011;61545;53.726;-0.444;2023-04-05T11:03:44;19.3;;;10.4;;
73315;SDS011;61545;53.726;-0.444;2023-04-05T11:08:33;24.9;;;11.7;;
73315;SDS011;61545;53.726;-0.444;2023-04-05T11:13:48;14.7;;;8.7;;
73315;SDS011;61545;53.726;-0.444;2023-04-05T11:18:33;13.8;;;8.2;;
73315;SDS011;61545;53.726;-0.444;2023-04-05T11:23:34;13.4;;;7.8;;
73315;SDS011;61545;53.726;-0.444;2023-04-05T11:28:34;16.6;;;8.4;;
73315;SDS011;61545;53.726;-0.444;2023-04-05T11:34:05;16.6;;;8.4;;
73315;SDS011;61545;53.726;-0.444;2023-04-05T11:38:33;15.3;;;7.5;;
73315;SDS011;61545;53.726;-0.444;2023-04-05T11:43:33;14.2;;;8.1;;
73315;SDS011;61545;53.726;-0.444;2023-04-05T11:48:33;17.5;;;9.5;;
73315;SDS011;61545;53.726;-0.444;2023-04-05T11:53:33;17.7;;;9.8;;
73315;SDS011;61545;53.726;-0.444;2023-04-05T11:58:33;18.5;;;9.7;;
73315;SDS011;61545;53.726;-0.444;2023-04-05T12:03:33;18.5;;;9.7;;
73315;SDS011;61545;53.726;-0.444;2023-04-05T12:08:37;18.9;;;10.5;;
73315;SDS011;61545;53.726;-0.444;2023-04-05T12:13:33;17.6;;;9.8;;
73315;SDS011;61545;53.726;-0.444;2023-04-05T12:18:34;17.9;;;10.3;;
73315;SDS011;61545;53.726;-0.444;2023-04-05T12:23:33;17.7;;;10.2;;
73315;SDS011;61545;53.726;-0.444;2023-04-05T12:28:49;17.3;;;9.9;;
73315;SDS011;61545;53.726;-0.444;2023-04-05T12:33:33;17.3;;;9.9;;
73315;SDS011;61545;53.726;-0.444;2023-04-05T12:38:35;16.3;;;9.6;;
73315;SDS011;61545;53.726;-0.444;2023-04-05T12:43:37;25.1;;;12;;
73315;SDS011;61545;53.726;-0.444;2023-04-05T12:48:33;23.7;;;13.7;;
73315;SDS011;61545;53.726;-0.444;2023-04-05T12:53:33;25.6;;;14;;
73315;SDS011;61545;53.726;-0.444;2023-04-05T12:58:34;20.4;;;10.2;;
73315;SDS011;61545;53.726;-0.444;2023-04-05T13:03:33;20.4;;;10.2;;
73315;SDS011;61545;53.726;-0.444;2023-04-05T13:08:33;12.4;;;7.4;;
73315;SDS011;61545;53.726;-0.444;2023-04-05T13:13:33;14.7;;;7.7;;
73315;SDS011;61545;53.726;-0.444;2023-04-05T13:18:33;13.2;;;8.3;;
73315;SDS011;61545;53.726;-0.444;2023-04-05T13:23:33;14.3;;;8.6;;
73315;SDS011;61545;53.726;-0.444;2023-04-05T13:28:33;17.0;;;9.9;;
73315;SDS011;61545;53.726;-0.444;2023-04-05T13:33:33;17.0;;;9.9;;
73315;SDS011;61545;53.726;-0.444;2023-04-05T13:38:33;16.5;;;9.2;;
73315;SDS011;61545;53.726;-0.444;2023-04-05T13:43:33;13.7;;;9.1;;
73315;SDS011;61545;53.726;-0.444;2023-04-05T13:48:33;14.7;;;9.9;;
73315;SDS011;61545;53.726;-0.444;2023-04-05T13:53:33;14.7;;;9.2;;
73315;SDS011;61545;53.726;-0.444;2023-04-05T13:58:33;15.8;;;10.7;;
73315;SDS011;61545;53.726;-0.444;2023-04-05T14:03:33;15.8;;;10.7;;
73315;SDS011;61545;53.726;-0.444;2023-04-05T14:08:33;16.2;;;10.6;;
73315;SDS011;61545;53.726;-0.444;2023-04-05T14:13:33;14.4;;;10.6;;
73315;SDS011;61545;53.726;-0.444;2023-04-05T14:18:33;14.3;;;8.7;;
73315;SDS011;61545;53.726;-0.444;2023-04-05T14:23:33;20.0;;;11.1;;
73315;SDS011;61545;53.726;-0.444;2023-04-05T14:28:33;88.6;;;15.1;;
73315;SDS011;61545;53.726;-0.444;2023-04-05T14:33:33;88.6;;;15.1;;
73315;SDS011;61545;53.726;-0.444;2023-04-05T14:38:33;68.3;;;14.4;;
73315;SDS011;61545;53.726;-0.444;2023-04-05T14:43:33;38.8;;;13.3;;
73315;SDS011;61545;53.726;-0.444;2023-04-05T14:48:33;151.8;;;19.4;;
73315;SDS011;61545;53.726;-0.444;2023-04-05T14:53:33;107.4;;;14.4;;
73315;SDS011;61545;53.726;-0.444;2023-04-05T14:58:33;26.2;;;8.2;;
73315;SDS011;61545;53.726;-0.444;2023-04-05T15:03:33;26.2;;;8.2;;
73315;SDS011;61545;53.726;-0.444;2023-04-05T15:08:33;14.4;;;8.3;;
73315;SDS011;61545;53.726;-0.444;2023-04-05T15:13:33;17.3;;;9;;
73315;SDS011;61545;53.726;-0.444;2023-04-05T15:18:33;17.3;;;9.5;;
73315;SDS011;61545;53.726;-0.444;2023-04-05T15:23:33;15.0;;;10.1;;
73315;SDS011;61545;53.726;-0.444;2023-04-05T15:28:33;17.4;;;10.5;;
73315;SDS011;61545;53.726;-0.444;2023-04-05T15:33:33;17.4;;;10.5;;
73315;SDS011;61545;53.726;-0.444;2023-04-05T15:38:33;18.0;;;10.3;;
73315;SDS011;61545;53.726;-0.444;2023-04-05T15:43:33;15.1;;;9.6;;
73315;SDS011;61545;53.726;-0.444;2023-04-05T15:48:33;16.0;;;9.8;;
73315;SDS011;61545;53.726;-0.444;2023-04-05T15:53:33;15.9;;;10.3;;
73315;SDS011;61545;53.726;-0.444;2023-04-05T15:58:33;16.3;;;10.3;;
73315;SDS011;61545;53.726;-0.444;2023-04-05T16:03:33;16.3;;;10.3;;
73315;SDS011;61545;53.726;-0.444;2023-04-05T16:08:33;13.9;;;10.4;;
73315;SDS011;61545;53.726;-0.444;2023-04-05T16:13:33;14.1;;;9.4;;
73315;SDS011;61545;53.726;-0.444;2023-04-05T16:18:33;14.0;;;10;;
73315;SDS011;61545;53.726;-0.444;2023-04-05T16:23:33;20.4;;;12.1;;
73315;SDS011;61545;53.726;-0.444;2023-04-05T16:28:33;18.0;;;12.3;;
73315;SDS011;61545;53.726;-0.444;2023-04-05T16:33:33;18.0;;;12.3;;
73315;SDS011;61545;53.726;-0.444;2023-04-05T16:38:33;16.4;;;10.8;;
73315;SDS011;61545;53.726;-0.444;2023-04-05T16:43:33;16.1;;;11.3;;
73315;SDS011;61545;53.726;-0.444;2023-04-05T16:48:33;16.0;;;11.8;;
73315;SDS011;61545;53.726;-0.444;2023-04-05T16:53:33;14.7;;;10.9;;
73315;SDS011;61545;53.726;-0.444;2023-04-05T16:58:33;15.3;;;11.1;;
73315;SDS011;61545;53.726;-0.444;2023-04-05T17:03:33;15.3;;;11.1;;
73315;SDS011;61545;53.726;-0.444;2023-04-05T17:08:33;16.1;;;11.3;;
73315;SDS011;61545;53.726;-0.444;2023-04-05T17:13:33;13.5;;;9.6;;
73315;SDS011;61545;53.726;-0.444;2023-04-05T17:18:33;14.6;;;10.4;;
73315;SDS011;61545;53.726;-0.444;2023-04-05T17:23:33;14.5;;;8.7;;
73315;SDS011;61545;53.726;-0.444;2023-04-05T17:28:33;12.2;;;9.3;;
73315;SDS011;61545;53.726;-0.444;2023-04-05T17:33:33;12.2;;;9.3;;
73315;SDS011;61545;53.726;-0.444;2023-04-05T17:38:33;11.4;;;9.1;;
73315;SDS011;61545;53.726;-0.444;2023-04-05T17:43:33;14.1;;;10.3;;
73315;SDS011;61545;53.726;-0.444;2023-04-05T17:48:33;14.0;;;9.9;;
73315;SDS011;61545;53.726;-0.444;2023-04-05T17:53:33;12.4;;;9.7;;
73315;SDS011;61545;53.726;-0.444;2023-04-05T17:58:33;12.6;;;8.9;;
73315;SDS011;61545;53.726;-0.444;2023-04-05T18:03:33;12.6;;;8.9;;
73315;SDS011;61545;53.726;-0.444;2023-04-05T18:08:33;14.3;;;9.5;;
73315;SDS011;61545;53.726;-0.444;2023-04-05T18:13:33;12.0;;;9.2;;
73315;SDS011;61545;53.726;-0.444;2023-04-05T18:18:33;14.1;;;9.2;;
73315;SDS011;61545;53.726;-0.444;2023-04-05T18:23:33;13.4;;;9.9;;
73315;SDS011;61545;53.726;-0.444;2023-04-05T18:28:33;13.1;;;10.2;;
73315;SDS011;61545;53.726;-0.444;2023-04-05T18:33:33;13.1;;;10.2;;
73315;SDS011;61545;53.726;-0.444;2023-04-05T18:38:33;11.8;;;9;;
73315;SDS011;61545;53.726;-0.444;2023-04-05T18:43:33;15.8;;;11.6;;
73315;SDS011;61545;53.726;-0.444;2023-04-05T18:48:33;18.0;;;11.8;;
73315;SDS011;61545;53.726;-0.444;2023-04-05T18:53:33;14.0;;;10.5;;
73315;SDS011;61545;53.726;-0.444;2023-04-05T18:58:33;14.5;;;11;;
73315;SDS011;61545;53.726;-0.444;2023-04-05T19:03:33;14.5;;;11;;
73315;SDS011;61545;53.726;-0.444;2023-04-05T19:08:33;15.2;;;11.2;;
73315;SDS011;61545;53.726;-0.444;2023-04-05T19:13:33;14.6;;;10.2;;
73315;SDS011;61545;53.726;-0.444;2023-04-05T19:18:33;14.0;;;10.4;;
73315;SDS011;61545;53.726;-0.444;2023-04-05T19:23:33;14.8;;;10.9;;
73315;SDS011;61545;53.726;-0.444;2023-04-05T19:28:33;14.8;;;11.6;;
73315;SDS011;61545;53.726;-0.444;2023-04-05T19:33:33;14.8;;;11.6;;
73315;SDS011;61545;53.726;-0.444;2023-04-05T19:38:33;14.9;;;11.1;;
73315;SDS011;61545;53.726;-0.444;2023-04-05T19:43:33;12.4;;;9.9;;
73315;SDS011;61545;53.726;-0.444;2023-04-05T19:48:35;14.5;;;10.1;;
73315;SDS011;61545;53.726;-0.444;2023-04-05T19:53:38;12.7;;;10.4;;
73315;SDS011;61545;53.726;-0.444;2023-04-05T19:58:33;13.2;;;9.4;;
73315;SDS011;61545;53.726;-0.444;2023-04-05T20:03:34;13.2;;;9.4;;
73315;SDS011;61545;53.726;-0.444;2023-04-05T20:08:35;14.0;;;10.7;;
73315;SDS011;61545;53.726;-0.444;2023-04-05T20:13:38;13.7;;;10.3;;
73315;SDS011;61545;53.726;-0.444;2023-04-05T20:18:33;16.8;;;12.3;;
73315;SDS011;61545;53.726;-0.444;2023-04-05T20:23:34;20.8;;;13.6;;
73315;SDS011;61545;53.726;-0.444;2023-04-05T20:28:35;17.2;;;13;;
73315;SDS011;61545;53.726;-0.444;2023-04-05T20:33:36;17.2;;;13;;
73315;SDS011;61545;53.726;-0.444;2023-04-05T20:38:33;15.0;;;12.2;;
73315;SDS011;61545;53.726;-0.444;2023-04-05T20:43:33;18.2;;;13.4;;
73315;SDS011;61545;53.726;-0.444;2023-04-05T20:48:34;20.3;;;16.2;;
73315;SDS011;61545;53.726;-0.444;2023-04-05T20:53:33;18.9;;;14.6;;
73315;SDS011;61545;53.726;-0.444;2023-04-05T20:58:33;19.6;;;15.1;;
73315;SDS011;61545;53.726;-0.444;2023-04-05T21:03:34;19.6;;;15.1;;
73315;SDS011;61545;53.726;-0.444;2023-04-05T21:08:34;19.4;;;14.9;;
73315;SDS011;61545;53.726;-0.444;2023-04-05T21:13:33;25.5;;;17.4;;
73315;SDS011;61545;53.726;-0.444;2023-04-05T21:18:33;19.3;;;14.4;;
73315;SDS011;61545;53.726;-0.444;2023-04-05T21:23:33;23.9;;;17.8;;
73315;SDS011;61545;53.726;-0.444;2023-04-05T21:28:33;22.5;;;17.1;;
73315;SDS011;61545;53.726;-0.444;2023-04-05T21:33:33;22.5;;;17.1;;
73315;SDS011;61545;53.726;-0.444;2023-04-05T21:38:33;24.1;;;17.1;;
73315;SDS011;61545;53.726;-0.444;2023-04-05T21:43:33;22.7;;;16.4;;
73315;SDS011;61545;53.726;-0.444;2023-04-05T21:48:33;22.5;;;16;;
73315;SDS011;61545;53.726;-0.444;2023-04-05T21:53:33;23.7;;;16.7;;
73315;SDS011;61545;53.726;-0.444;2023-04-05T21:58:33;23.0;;;17.1;;
73315;SDS011;61545;53.726;-0.444;2023-04-05T22:03:33;23.0;;;17.1;;
73315;SDS011;61545;53.726;-0.444;2023-04-05T22:08:33;25.1;;;18.1;;
73315;SDS011;61545;53.726;-0.444;2023-04-05T22:13:33;25.3;;;18.4;;
73315;SDS011;61545;53.726;-0.444;2023-04-05T22:18:33;26.8;;;18.5;;
73315;SDS011;61545;53.726;-0.444;2023-04-05T22:23:33;25.2;;;18;;
73315;SDS011;61545;53.726;-0.444;2023-04-05T22:28:33;22.2;;;16.8;;
73315;SDS011;61545;53.726;-0.444;2023-04-05T22:33:33;22.2;;;16.8;;
73315;SDS011;61545;53.726;-0.444;2023-04-05T22:38:33;23.3;;;16.1;;
73315;SDS011;61545;53.726;-0.444;2023-04-05T22:43:33;27.9;;;19.5;;
73315;SDS011;61545;53.726;-0.444;2023-04-05T22:48:33;27.8;;;18;;
73315;SDS011;61545;53.726;-0.444;2023-04-05T22:53:33;29.1;;;20.2;;
73315;SDS011;61545;53.726;-0.444;2023-04-05T22:58:33;29.8;;;20.4;;
73315;SDS011;61545;53.726;-0.444;2023-04-05T23:03:33;29.8;;;20.4;;
73315;SDS011;61545;53.726;-0.444;2023-04-05T23:08:33;27.8;;;18.3;;
73315;SDS011;61545;53.726;-0.444;2023-04-05T23:13:33;32.0;;;21.9;;
73315;SDS011;61545;53.726;-0.444;2023-04-05T23:18:33;33.3;;;22.7;;
73315;SDS011;61545;53.726;-0.444;2023-04-05T23:23:33;32.2;;;21.3;;
73315;SDS011;61545;53.726;-0.444;2023-04-05T23:28:33;30.1;;;20;;
73315;SDS011;61545;53.726;-0.444;2023-04-05T23:33:33;30.1;;;20;;
73315;SDS011;61545;53.726;-0.444;2023-04-05T23:38:33;30.4;;;20.2;;
73315;SDS011;61545;53.726;-0.444;2023-04-05T23:43:33;28.1;;;19.1;;
73315;SDS011;61545;53.726;-0.444;2023-04-05T23:48:33;29.6;;;20.3;;
73315;SDS011;61545;53.726;-0.444;2023-04-05T23:53:33;27.4;;;18.6;;
73315;SDS011;61545;53.726;-0.444;2023-04-05T23:58:33;23.0;;;16.2;;
